createdAt,value
2019-05-02T00:01:13.563Z,9.47
2019-05-02T00:03:43.493Z,10.77
2019-05-02T00:06:13.643Z,4.23
2019-05-02T00:08:43.838Z,1.30
2019-05-02T00:11:14.149Z,6.13
2019-05-02T00:13:43.985Z,2.10
2019-05-02T00:16:15.324Z,6.27
2019-05-02T00:18:45.162Z,5.53
2019-05-02T00:21:15.142Z,9.07
2019-05-02T00:23:45.002Z,9.43
2019-05-02T00:26:14.906Z,9.23
2019-05-02T00:28:47.939Z,11.63
2019-05-02T00:31:17.694Z,7.57
2019-05-02T00:33:47.566Z,12.37
2019-05-02T00:36:17.546Z,10.80
2019-05-02T00:38:47.357Z,8.77
2019-05-02T00:41:17.426Z,7.03
2019-05-02T00:43:47.199Z,7.30
2019-05-02T00:46:17.290Z,5.53
2019-05-02T00:48:59.609Z,2.10
2019-05-02T00:51:28.131Z,3.17
2019-05-02T00:53:57.900Z,2.80
2019-05-02T00:56:27.656Z,2.70
2019-05-02T00:58:57.439Z,3.07
2019-05-02T01:01:46.305Z,3.23
2019-05-02T01:04:27.532Z,3.53
2019-05-02T01:06:56.210Z,3.90
2019-05-02T01:09:26.080Z,5.60
2019-05-02T01:11:56.099Z,6.33
2019-05-02T01:14:27.191Z,8.53
2019-05-02T01:16:57.575Z,10.20
2019-05-02T01:19:27.508Z,10.10
2019-05-02T01:21:57.379Z,7.77
2019-05-02T01:24:27.293Z,8.00
2019-05-02T01:27:12.397Z,8.50
2019-05-02T01:29:51.029Z,9.47
2019-05-02T01:32:33.463Z,7.77
2019-05-02T01:35:08.606Z,5.87
2019-05-02T01:37:56.124Z,6.27
2019-05-02T01:40:25.981Z,6.07
2019-05-02T01:42:57.668Z,5.37
2019-05-02T01:45:27.632Z,4.80
2019-05-02T01:47:57.301Z,8.17
2019-05-02T01:50:28.854Z,4.63
2019-05-02T01:53:00.187Z,5.80
2019-05-02T01:55:29.932Z,4.60
2019-05-02T01:57:59.747Z,7.00
2019-05-02T02:00:29.501Z,7.37
2019-05-02T02:02:59.373Z,4.67
2019-05-02T02:05:32.375Z,5.73
2019-05-02T02:08:00.847Z,6.40
2019-05-02T02:10:30.715Z,5.57
2019-05-02T02:13:04.618Z,5.60
2019-05-02T02:15:32.022Z,5.20
2019-05-02T02:18:02.086Z,7.00
2019-05-02T02:20:36.879Z,7.03
2019-05-02T02:23:25.311Z,7.13
2019-05-02T02:25:58.861Z,4.47
2019-05-02T02:28:32.002Z,4.37
2019-05-02T02:31:04.811Z,4.53
2019-05-02T02:33:31.650Z,3.87
2019-05-02T02:36:01.699Z,5.97
2019-05-02T02:38:33.650Z,4.47
2019-05-02T02:41:06.471Z,3.53
2019-05-02T02:43:35.150Z,4.70
2019-05-02T02:46:20.902Z,4.27
2019-05-02T02:48:50.898Z,4.50
2019-05-02T02:51:26.215Z,3.83
2019-05-02T02:54:03.158Z,3.23
2019-05-02T02:56:23.726Z,6.03
2019-05-02T02:58:53.450Z,6.47
2019-05-02T03:01:29.109Z,3.70
2019-05-02T03:03:55.048Z,4.57
2019-05-02T03:06:24.850Z,5.53
2019-05-02T03:08:54.843Z,5.43
2019-05-02T03:11:28.956Z,3.87
2019-05-02T03:14:17.820Z,5.50
2019-05-02T03:16:49.607Z,2.83
2019-05-02T03:19:21.157Z,5.47
2019-05-02T03:22:00.309Z,3.40
2019-05-02T03:24:27.546Z,3.53
2019-05-02T03:26:58.718Z,4.63
2019-05-02T03:29:39.116Z,3.97
2019-05-02T03:32:13.377Z,4.43
2019-05-02T03:34:47.488Z,2.70
2019-05-02T03:37:10.268Z,4.70
2019-05-02T03:39:37.608Z,3.93
2019-05-02T03:42:07.414Z,3.13
2019-05-02T03:44:36.898Z,2.50
2019-05-02T03:47:06.458Z,4.07
2019-05-02T03:49:40.888Z,3.57
2019-05-02T03:52:08.212Z,3.67
2019-05-02T03:54:48.377Z,5.27
2019-05-02T03:57:09.955Z,2.97
2019-05-02T03:59:41.856Z,4.53
2019-05-02T04:02:13.890Z,3.03
2019-05-02T04:04:44.728Z,4.83
2019-05-02T04:07:16.006Z,4.77
2019-05-02T04:09:45.807Z,6.53
2019-05-02T04:12:21.327Z,4.93
2019-05-02T04:14:48.336Z,4.13
2019-05-02T04:17:18.418Z,4.93
2019-05-02T04:19:48.350Z,6.20
2019-05-02T04:22:18.793Z,5.20
2019-05-02T04:24:54.530Z,7.43
2019-05-02T04:27:19.927Z,5.30
2019-05-02T04:29:49.715Z,13.37
2019-05-02T04:32:19.571Z,8.73
2019-05-02T04:34:55.745Z,10.93
2019-05-02T04:37:21.101Z,5.50
2019-05-02T04:39:53.684Z,4.33
2019-05-02T04:42:23.380Z,5.03
2019-05-02T04:45:14.241Z,4.40
2019-05-02T04:47:24.726Z,4.83
2019-05-02T04:49:57.971Z,3.40
2019-05-02T04:52:28.827Z,4.87
2019-05-02T04:55:08.112Z,6.63
2019-05-02T04:57:37.010Z,20.00
2019-05-02T05:00:06.165Z,15.70
2019-05-02T05:02:36.352Z,11.50
2019-05-02T05:05:05.040Z,8.40
2019-05-02T05:07:41.029Z,6.47
2019-05-02T05:10:08.390Z,4.43
2019-05-02T05:12:41.804Z,4.27
2019-05-02T05:15:15.222Z,5.00
2019-05-02T05:17:41.324Z,4.03
2019-05-02T05:20:15.507Z,5.20
2019-05-02T05:22:44.128Z,18.57
2019-05-02T05:25:21.320Z,15.37
2019-05-02T05:27:52.748Z,20.90
2019-05-02T05:30:21.248Z,19.80
2019-05-02T05:32:51.049Z,26.70
2019-05-02T05:35:20.863Z,9.73
2019-05-02T05:37:53.048Z,12.43
2019-05-02T05:40:27.559Z,10.90
2019-05-02T05:42:53.994Z,11.80
2019-05-02T05:45:23.770Z,19.27
2019-05-02T05:47:57.579Z,18.50
2019-05-02T05:50:24.986Z,16.73
2019-05-02T05:52:54.847Z,13.93
2019-05-02T05:55:24.718Z,12.30
2019-05-02T05:57:59.478Z,7.03
2019-05-02T06:00:27.830Z,7.13
2019-05-02T06:03:10.327Z,5.37
2019-05-02T06:05:33.104Z,7.70
2019-05-02T06:08:01.887Z,5.30
2019-05-02T06:10:31.700Z,7.03
2019-05-02T06:13:05.357Z,4.87
2019-05-02T06:15:33.879Z,7.07
2019-05-02T06:18:06.066Z,5.87
2019-05-02T06:20:36.163Z,9.07
2019-05-02T06:23:06.021Z,8.07
2019-05-02T06:25:36.707Z,6.37
2019-05-02T06:28:06.977Z,7.03
2019-05-02T06:30:36.699Z,6.70
2019-05-02T06:33:06.606Z,10.50
2019-05-02T06:35:36.399Z,7.93
2019-05-02T06:38:06.108Z,8.87
2019-05-02T06:40:39.277Z,12.07
2019-05-02T06:43:09.695Z,7.23
2019-05-02T06:45:41.421Z,5.87
2019-05-02T06:48:17.176Z,7.20
2019-05-02T06:50:43.067Z,8.10
2019-05-02T06:53:14.337Z,7.63
2019-05-02T06:55:44.131Z,12.83
2019-05-02T06:58:13.924Z,7.30
2019-05-02T07:00:56.786Z,7.87
2019-05-02T07:03:16.627Z,7.70
2019-05-02T07:05:49.060Z,10.50
2019-05-02T07:08:18.169Z,9.10
2019-05-02T07:10:47.658Z,9.03
2019-05-02T07:13:17.321Z,8.57
2019-05-02T07:15:54.609Z,7.27
2019-05-02T07:18:24.824Z,6.33
2019-05-02T07:20:54.795Z,7.80
2019-05-02T07:23:24.653Z,5.57
2019-05-02T07:25:54.394Z,6.63
2019-05-02T07:28:24.472Z,6.50
2019-05-02T07:30:54.735Z,8.70
2019-05-02T07:33:24.748Z,8.73
2019-05-02T07:35:55.250Z,8.33
2019-05-02T07:38:27.583Z,4.80
2019-05-02T07:40:58.707Z,7.17
2019-05-02T07:43:29.731Z,5.80
2019-05-02T07:45:59.667Z,8.10
2019-05-02T07:48:30.776Z,7.27
2019-05-02T07:51:00.701Z,9.73
2019-05-02T07:53:31.052Z,11.60
2019-05-02T07:56:02.089Z,7.67
2019-05-02T07:58:31.800Z,7.10
2019-05-02T08:01:01.522Z,6.17
2019-05-02T08:03:33.622Z,5.90
2019-05-02T08:06:04.125Z,10.40
2019-05-02T08:08:36.347Z,6.37
2019-05-02T08:11:06.965Z,5.93
2019-05-02T08:13:36.821Z,5.80
2019-05-02T08:16:06.757Z,6.80
2019-05-02T08:18:36.598Z,9.07
2019-05-02T08:21:06.261Z,6.40
2019-05-02T08:23:36.200Z,7.53
2019-05-02T08:26:06.669Z,7.23
2019-05-02T08:28:52.004Z,9.57
2019-05-02T08:31:20.988Z,7.60
2019-05-02T08:33:51.027Z,7.90
2019-05-02T08:36:21.085Z,6.90
2019-05-02T08:38:53.679Z,7.20
2019-05-02T08:41:22.395Z,9.90
2019-05-02T08:43:52.215Z,8.97
2019-05-02T08:46:22.065Z,9.13
2019-05-02T08:48:51.903Z,10.47
2019-05-02T08:51:21.844Z,9.23
2019-05-02T08:53:56.442Z,8.37
2019-05-02T08:56:23.246Z,8.67
2019-05-02T08:58:54.424Z,8.50
2019-05-02T09:01:34.554Z,8.80
2019-05-02T09:03:57.026Z,8.47
2019-05-02T09:06:27.074Z,8.23
2019-05-02T09:08:56.931Z,8.43
2019-05-02T09:11:26.728Z,10.37
2019-05-02T09:13:56.894Z,8.63
2019-05-02T09:16:28.786Z,7.87
2019-05-02T09:18:58.116Z,9.27
2019-05-02T09:21:34.253Z,7.73
2019-05-02T09:24:02.492Z,8.47
2019-05-02T09:26:37.954Z,10.03
2019-05-02T09:29:05.391Z,9.90
2019-05-02T09:31:36.686Z,6.13
2019-05-02T09:34:06.834Z,7.07
2019-05-02T09:36:38.247Z,6.33
2019-05-02T09:39:08.619Z,5.43
2019-05-02T09:41:38.374Z,6.23
2019-05-02T09:44:09.067Z,6.00
2019-05-02T09:46:39.587Z,5.10
2019-05-02T09:49:15.753Z,4.63
2019-05-02T09:51:42.020Z,5.07
2019-05-02T09:54:12.490Z,3.90
2019-05-02T09:56:43.090Z,3.30
2019-05-02T09:59:26.279Z,3.23
2019-05-02T10:01:45.756Z,3.23
2019-05-02T10:04:17.016Z,3.00
2019-05-02T10:06:47.098Z,3.50
2019-05-02T10:09:18.626Z,2.73
2019-05-02T10:11:48.465Z,3.43
2019-05-02T10:14:18.121Z,5.20
2019-05-02T10:16:47.919Z,3.87
2019-05-02T10:19:19.023Z,3.93
2019-05-02T10:21:52.476Z,3.73
2019-05-02T10:24:22.237Z,3.40
2019-05-02T10:26:55.183Z,3.40
2019-05-02T10:29:28.472Z,3.60
2019-05-02T10:31:55.110Z,3.97
2019-05-02T10:34:24.831Z,4.37
2019-05-02T10:36:59.029Z,10.60
2019-05-02T10:39:28.391Z,8.37
2019-05-02T10:41:59.247Z,4.43
2019-05-02T10:44:32.787Z,3.70
2019-05-02T10:47:00.353Z,3.80
2019-05-02T10:49:56.476Z,4.63
2019-05-02T10:52:29.715Z,3.73
2019-05-02T10:54:57.650Z,3.87
2019-05-02T10:57:27.518Z,4.00
2019-05-02T10:59:57.610Z,3.10
2019-05-02T11:02:46.092Z,4.20
2019-05-02T11:05:22.574Z,6.23
2019-05-02T11:07:52.174Z,3.03
2019-05-02T11:10:21.974Z,3.77
2019-05-02T11:13:12.431Z,2.53
2019-05-02T11:15:58.457Z,2.90
2019-05-02T11:18:40.299Z,4.73
2019-05-02T11:21:04.454Z,3.93
2019-05-02T11:23:34.164Z,3.57
2019-05-02T11:26:04.005Z,3.80
2019-05-02T11:28:33.666Z,3.30
2019-05-02T11:31:06.864Z,3.13
2019-05-02T11:33:34.889Z,3.30
2019-05-02T11:36:06.319Z,3.90
2019-05-02T11:38:36.441Z,4.30
2019-05-02T11:41:07.000Z,3.40
2019-05-02T11:43:41.380Z,2.90
2019-05-02T11:46:12.050Z,4.30
2019-05-02T11:48:54.755Z,4.50
2019-05-02T11:51:16.452Z,4.37
2019-05-02T11:53:44.833Z,4.67
2019-05-02T11:56:14.707Z,4.57
2019-05-02T11:58:48.199Z,5.17
2019-05-02T12:01:20.239Z,3.37
2019-05-02T12:03:52.437Z,4.13
2019-05-02T12:06:23.686Z,3.10
2019-05-02T12:08:53.390Z,7.27
2019-05-02T12:11:23.527Z,6.03
2019-05-02T12:13:57.005Z,5.90
2019-05-02T12:16:26.634Z,6.70
2019-05-02T12:19:08.660Z,6.83
2019-05-02T12:21:28.717Z,6.00
2019-05-02T12:23:58.490Z,6.33
2019-05-02T12:26:28.346Z,5.77
2019-05-02T12:28:59.635Z,5.77
2019-05-02T12:31:32.623Z,5.83
2019-05-02T12:34:06.382Z,6.63
2019-05-02T12:36:36.302Z,5.40
2019-05-02T12:39:07.052Z,5.93
2019-05-02T12:41:36.888Z,6.10
2019-05-02T12:44:06.865Z,5.63
2019-05-02T12:46:36.679Z,6.33
2019-05-02T12:49:07.755Z,7.67
2019-05-02T12:51:37.542Z,7.43
2019-05-02T12:54:07.370Z,6.93
2019-05-02T12:56:37.325Z,6.40
2019-05-02T12:59:07.206Z,6.87
2019-05-02T13:01:37.225Z,5.63
2019-05-02T13:04:12.548Z,6.70
2019-05-02T13:06:42.573Z,6.37
2019-05-02T13:09:13.033Z,5.80
2019-05-02T13:12:02.840Z,6.87
2019-05-02T13:14:33.071Z,6.40
2019-05-02T13:17:05.669Z,6.83
2019-05-02T13:19:40.194Z,8.53
2019-05-02T13:22:23.631Z,8.07
2019-05-02T13:24:56.479Z,14.57
2019-05-02T13:27:26.248Z,24.20
2019-05-02T13:29:56.322Z,44.00
2019-05-02T13:32:47.968Z,37.07
2019-05-02T13:35:34.215Z,45.13
2019-05-02T13:38:05.282Z,44.77
2019-05-02T13:40:41.827Z,57.77
2019-05-02T13:43:12.567Z,10.10
2019-05-02T13:46:08.283Z,119.77
2019-05-02T13:48:39.561Z,15.05
2019-05-02T13:51:11.761Z,47.00
2019-05-02T13:54:09.075Z,33.70
2019-05-02T13:56:53.162Z,7.40
2019-05-02T13:59:23.349Z,5.40
2019-05-02T14:01:54.572Z,7.90
2019-05-02T14:04:24.651Z,4.17
2019-05-02T14:06:54.522Z,4.07
2019-05-02T14:09:58.705Z,4.07
2019-05-02T14:12:42.866Z,5.23
2019-05-02T14:15:13.930Z,4.17
2019-05-02T14:17:43.743Z,7.90
2019-05-02T14:20:14.053Z,6.90
2019-05-02T14:22:43.833Z,4.10
2019-05-02T14:25:14.711Z,3.57
2019-05-02T14:27:46.964Z,3.33
2019-05-02T14:30:18.632Z,5.57
2019-05-02T14:32:48.473Z,4.77
2019-05-02T14:35:28.112Z,5.83
2019-05-02T14:38:09.496Z,2.87
2019-05-02T14:40:54.370Z,4.73
2019-05-02T14:43:46.221Z,5.83
2019-05-02T14:46:13.869Z,4.63
2019-05-02T14:48:45.313Z,5.07
2019-05-02T14:51:21.622Z,6.83
2019-05-02T14:53:48.174Z,5.13
2019-05-02T14:56:37.495Z,7.17
2019-05-02T14:59:13.723Z,6.08
2019-05-02T15:01:42.485Z,3.80
2019-05-02T15:04:12.921Z,4.90
2019-05-02T15:06:47.125Z,6.57
2019-05-02T15:09:16.634Z,4.90
2019-05-02T15:11:58.742Z,4.25
2019-05-02T15:14:33.487Z,5.17
2019-05-02T15:17:03.702Z,4.10
2019-05-02T15:19:33.768Z,3.90
2019-05-02T15:22:03.952Z,4.30
2019-05-02T15:24:37.615Z,3.37
2019-05-02T15:27:11.813Z,5.70
2019-05-02T15:29:38.478Z,5.40
2019-05-02T15:32:37.250Z,6.63
2019-05-02T15:35:25.107Z,7.43
2019-05-02T15:37:56.748Z,6.93
2019-05-02T15:43:02.865Z,9.80
2019-05-02T15:45:28.537Z,10.20
2019-05-02T15:47:58.370Z,18.50
2019-05-02T15:50:29.278Z,11.47
2019-05-02T15:53:24.106Z,8.83
2019-05-02T15:55:53.967Z,10.93
2019-05-02T15:58:27.919Z,7.50
2019-05-02T16:01:08.165Z,7.97
2019-05-02T16:03:46.536Z,10.47
2019-05-02T16:06:21.076Z,7.20
2019-05-02T16:08:48.129Z,6.50
2019-05-02T16:11:18.525Z,6.83
2019-05-02T16:13:52.715Z,8.53
2019-05-02T16:16:22.933Z,6.60
2019-05-02T16:18:53.065Z,8.07
2019-05-02T16:21:42.975Z,6.87
2019-05-02T16:24:23.298Z,13.13
2019-05-02T16:26:57.065Z,13.90
2019-05-02T16:29:28.892Z,20.33
2019-05-02T16:32:10.112Z,17.03
2019-05-02T16:35:12.291Z,14.67
2019-05-02T16:37:36.364Z,8.53
2019-05-02T16:40:08.602Z,7.83
2019-05-02T16:42:38.633Z,5.93
2019-05-02T16:45:12.430Z,6.73
2019-05-02T16:47:42.433Z,7.60
2019-05-02T16:50:12.647Z,6.17
2019-05-02T16:52:47.213Z,6.07
2019-05-02T16:55:21.006Z,6.93
2019-05-02T16:57:48.991Z,5.60
2019-05-02T17:00:22.676Z,9.00
2019-05-02T17:02:52.512Z,5.63
2019-05-02T17:05:23.776Z,7.63
2019-05-02T17:08:27.842Z,5.97
2019-05-02T17:11:15.375Z,6.70
2019-05-02T17:13:42.320Z,7.37
2019-05-02T17:16:16.986Z,7.13
2019-05-02T17:18:48.350Z,6.20
2019-05-02T17:21:15.162Z,7.37
2019-05-02T17:23:47.490Z,8.40
2019-05-02T17:26:16.522Z,12.13
2019-05-02T17:28:47.195Z,7.03
2019-05-02T17:31:20.550Z,8.83
2019-05-02T17:33:51.136Z,6.53
2019-05-02T17:36:21.572Z,8.80
2019-05-02T17:38:54.396Z,13.43
2019-05-02T17:41:23.803Z,9.10
2019-05-02T17:43:56.616Z,9.60
2019-05-02T17:46:25.979Z,8.70
2019-05-02T17:48:57.170Z,10.43
2019-05-02T17:51:48.665Z,7.87
2019-05-02T17:54:22.822Z,8.77
2019-05-02T17:56:52.269Z,7.50
2019-05-02T17:59:21.609Z,9.60
2019-05-02T18:01:52.461Z,8.07
2019-05-02T18:04:22.282Z,9.90
2019-05-02T18:06:54.994Z,6.80
2019-05-02T18:09:26.308Z,5.30
2019-05-02T18:11:55.504Z,6.10
2019-05-02T18:14:25.284Z,6.70
2019-05-02T18:16:55.726Z,6.00
2019-05-02T18:19:25.647Z,9.60
2019-05-02T18:21:58.300Z,7.93
2019-05-02T18:24:27.640Z,7.07
2019-05-02T18:26:57.367Z,8.53
2019-05-02T18:29:27.212Z,10.73
2019-05-02T18:31:57.076Z,12.07
2019-05-02T18:34:26.993Z,9.50
2019-05-02T18:36:57.568Z,7.20
2019-05-02T18:39:28.562Z,7.87
2019-05-02T18:41:58.266Z,7.93
2019-05-02T18:44:29.462Z,7.17
2019-05-02T18:46:59.221Z,8.77
2019-05-02T18:49:32.141Z,11.23
2019-05-02T18:52:02.231Z,15.63
2019-05-02T18:54:33.790Z,12.97
2019-05-02T18:57:03.888Z,10.53
2019-05-02T18:59:35.008Z,12.43
2019-05-02T19:02:04.778Z,10.40
2019-05-02T19:04:38.103Z,7.77
2019-05-02T19:07:07.436Z,11.77
2019-05-02T19:09:48.397Z,9.50
2019-05-02T19:12:19.480Z,7.67
2019-05-02T19:14:42.861Z,9.90
2019-05-02T19:17:12.996Z,9.57
2019-05-02T19:19:43.079Z,9.33
2019-05-02T19:22:16.801Z,7.90
2019-05-02T19:24:45.496Z,7.43
2019-05-02T19:27:20.989Z,9.87
2019-05-02T19:29:49.518Z,6.27
2019-05-02T19:32:25.489Z,8.17
2019-05-02T19:34:53.132Z,7.07
2019-05-02T19:37:22.949Z,11.60
2019-05-02T19:39:53.090Z,6.77
2019-05-02T19:42:26.211Z,7.67
2019-05-02T19:44:54.669Z,9.70
2019-05-02T19:47:24.737Z,7.57
2019-05-02T19:49:54.710Z,10.67
2019-05-02T19:52:28.621Z,9.53
2019-05-02T19:54:59.050Z,11.60
2019-05-02T19:57:28.956Z,8.57
2019-05-02T20:00:02.827Z,5.43
2019-05-02T20:02:30.223Z,6.97
2019-05-02T20:05:02.695Z,7.47
2019-05-02T20:07:32.168Z,6.23
2019-05-02T20:10:02.004Z,6.37
2019-05-02T20:12:33.316Z,4.83
2019-05-02T20:15:03.091Z,4.87
2019-05-02T20:17:32.917Z,5.87
2019-05-02T20:20:07.217Z,6.03
2019-05-02T20:22:40.968Z,4.27
2019-05-02T20:25:12.388Z,6.00
2019-05-02T20:27:42.146Z,5.43
2019-05-02T20:30:12.369Z,8.50
2019-05-02T20:32:44.620Z,7.57
2019-05-02T20:35:14.800Z,6.10
2019-05-02T20:37:44.625Z,8.47
2019-05-02T20:40:31.668Z,5.07
2019-05-02T20:43:02.520Z,9.57
2019-05-02T20:45:32.521Z,7.30
2019-05-02T20:48:02.421Z,8.27
2019-05-02T20:50:32.344Z,9.60
2019-05-02T20:53:02.264Z,14.43
2019-05-02T20:55:33.343Z,11.57
2019-05-02T20:58:03.051Z,14.67
2019-05-02T21:00:33.626Z,11.63
2019-05-02T21:03:03.545Z,14.07
2019-05-02T21:05:40.181Z,14.60
2019-05-02T21:08:22.403Z,14.70
2019-05-02T21:10:52.630Z,16.67
2019-05-02T21:13:22.595Z,18.33
2019-05-02T21:15:52.559Z,18.57
2019-05-02T21:18:23.637Z,20.00
2019-05-02T21:20:53.551Z,20.77
2019-05-02T21:23:23.364Z,18.63
2019-05-02T21:25:53.236Z,19.47
2019-05-02T21:28:22.894Z,15.03
2019-05-02T21:30:52.831Z,11.17
2019-05-02T21:33:35.812Z,8.37
2019-05-02T21:36:06.266Z,11.77
2019-05-02T21:38:37.269Z,8.43
2019-05-02T21:41:10.807Z,8.53
2019-05-02T21:43:42.511Z,7.70
2019-05-02T21:46:12.387Z,10.47
2019-05-02T21:48:42.244Z,7.97
2019-05-02T21:51:31.984Z,10.03
2019-05-02T21:54:15.130Z,11.30
2019-05-02T21:56:54.480Z,7.37
2019-05-02T21:59:24.382Z,7.97
2019-05-02T22:01:55.477Z,15.67
2019-05-02T22:04:25.258Z,17.40
2019-05-02T22:06:55.258Z,15.90
2019-05-02T22:09:25.059Z,8.70
2019-05-02T22:11:54.982Z,8.10
2019-05-02T22:14:24.913Z,8.30
2019-05-02T22:16:54.812Z,8.33
2019-05-02T22:19:24.772Z,9.40
2019-05-02T22:21:54.527Z,9.97
2019-05-02T22:24:24.460Z,10.67
2019-05-02T22:26:54.444Z,9.27
2019-05-02T22:29:24.304Z,8.73
2019-05-02T22:31:54.471Z,8.20
2019-05-02T22:34:24.463Z,9.47
2019-05-02T22:36:54.443Z,9.27
2019-05-02T22:39:42.208Z,10.23
2019-05-02T22:42:13.154Z,9.77
2019-05-02T22:44:43.029Z,14.47
2019-05-02T22:47:14.092Z,10.87
2019-05-02T22:49:44.124Z,13.73
2019-05-02T22:52:14.539Z,11.43
2019-05-02T22:54:44.238Z,13.13
2019-05-02T22:57:14.467Z,15.70
2019-05-02T22:59:44.323Z,13.20
2019-05-02T23:02:14.175Z,22.23
2019-05-02T23:04:44.125Z,18.50
2019-05-02T23:07:14.159Z,18.73
2019-05-02T23:09:43.941Z,19.27
2019-05-02T23:12:13.908Z,17.47
2019-05-02T23:14:43.675Z,15.80
2019-05-02T23:17:13.727Z,16.93
2019-05-02T23:19:43.498Z,15.53
2019-05-02T23:22:13.115Z,16.50
2019-05-02T23:25:02.886Z,17.00
2019-05-02T23:27:39.188Z,18.70
2019-05-02T23:30:14.153Z,18.57
2019-05-02T23:32:44.038Z,20.20
2019-05-02T23:35:13.951Z,20.37
2019-05-02T23:37:43.771Z,23.03
2019-05-02T23:40:14.275Z,24.77
2019-05-02T23:42:44.049Z,49.63
2019-05-02T23:45:14.222Z,47.33
2019-05-02T23:47:44.203Z,46.77
2019-05-02T23:50:14.456Z,45.23
2019-05-02T23:52:44.273Z,48.80
2019-05-02T23:55:14.242Z,43.97
2019-05-02T23:57:44.015Z,42.07
